KBAM/BAM METAR and TAF weather

Enter ICAO airport designator
Station Type Date Time Source
KBAM METAR 2018/07/16 23:55 UTC NOAA

KBAM 162355Z AUTO 35012KT 10SM SCT110 35/02 A3005 RMK AO1


Station Type Date Time Source
KBAM Decoded METAR 2018/07/16 23:55 UTC NOAA

Station name not available
Jul 16, 2018 - 07:55 PM EDT / 2018.07.16 2355 UTC
Wind: from the N (350 degrees) at 14 MPH (12 KT):0
Visibility: 10 mile(s):0
Sky conditions: partly cloudy
Temperature: 95 F (35 C)
Dew Point: 35 F (2 C)
Relative Humidity: 12%
Pressure (altimeter): 30.05 in. Hg (1017 hPa)
ob: KBAM 162355Z AUTO 35012KT 10SM SCT110 35/02 A3005 RMK AO1
cycle: 0

Station Type Date Time Source
KBAM TAF 2018/07/16 18:36 UTC NOAA

TAF KBAM 161735Z 1618/1718 VRB03KT P6SM SCT120
FM162200 29010G20KT P6SM FEW120
FM170300 33007KT P6SM SKC


Example: see airport list